createdAt,value
2022-09-14T00:01:27.088Z,15.72
2022-09-14T00:03:57.655Z,15.71
2022-09-14T00:06:26.217Z,15.62
2022-09-14T00:08:54.930Z,15.56
2022-09-14T00:11:23.743Z,15.51
2022-09-14T00:13:50.980Z,15.53
2022-09-14T00:16:20.514Z,15.51
2022-09-14T00:18:53.203Z,15.54
2022-09-14T00:21:20.375Z,15.54
2022-09-14T00:23:46.989Z,15.58
2022-09-14T00:26:20.938Z,15.56
2022-09-14T00:28:51.044Z,15.52
2022-09-14T00:31:19.541Z,15.53
2022-09-14T00:33:48.037Z,15.54
2022-09-14T00:36:19.377Z,15.49
2022-09-14T00:38:47.295Z,15.44
2022-09-14T00:41:18.783Z,15.44
2022-09-14T00:44:05.230Z,15.44
2022-09-14T00:46:36.321Z,15.44
2022-09-14T00:49:06.479Z,15.42
2022-09-14T00:51:34.887Z,15.43
2022-09-14T00:54:03.612Z,15.44
2022-09-14T00:56:31.637Z,15.45
2022-09-14T00:58:59.970Z,15.46
2022-09-14T01:01:26.911Z,15.44
2022-09-14T01:03:53.585Z,15.40
2022-09-14T01:06:36.806Z,15.41
2022-09-14T01:09:18.124Z,15.41
2022-09-14T01:11:50.941Z,15.40
2022-09-14T01:14:41.857Z,15.40
2022-09-14T01:17:16.652Z,15.42
2022-09-14T01:19:59.599Z,15.41
2022-09-14T01:22:43.346Z,15.38
2022-09-14T01:25:34.217Z,15.34
2022-09-14T01:28:05.249Z,15.29
2022-09-14T01:30:34.446Z,15.32
2022-09-14T01:33:15.169Z,15.35
2022-09-14T01:35:47.982Z,15.38
2022-09-14T01:38:23.522Z,15.37
2022-09-14T01:40:51.333Z,15.42
2022-09-14T01:43:48.518Z,15.45
2022-09-14T01:46:14.987Z,15.45
2022-09-14T01:48:53.384Z,15.48
2022-09-14T01:51:29.726Z,15.47
2022-09-14T01:54:05.357Z,15.49
2022-09-14T01:56:41.537Z,15.47
2022-09-14T01:59:10.731Z,15.47
2022-09-14T02:01:48.504Z,15.44
2022-09-14T02:04:21.547Z,15.44
2022-09-14T02:06:49.316Z,15.39
2022-09-14T02:09:20.222Z,15.37
2022-09-14T02:11:47.545Z,15.34
2022-09-14T02:14:14.309Z,15.33
2022-09-14T02:16:43.597Z,15.32
2022-09-14T02:19:10.927Z,15.37
2022-09-14T02:21:38.436Z,15.39
2022-09-14T02:24:05.582Z,15.39
2022-09-14T02:26:32.689Z,15.39
2022-09-14T02:28:59.435Z,15.33
2022-09-14T02:31:27.106Z,15.32
2022-09-14T02:34:10.405Z,15.35
2022-09-14T02:36:37.089Z,15.40
2022-09-14T02:39:22.695Z,15.38
2022-09-14T02:41:58.015Z,15.40
2022-09-14T02:44:53.228Z,15.37
2022-09-14T02:47:39.171Z,15.35
2022-09-14T02:50:33.609Z,15.33
2022-09-14T02:53:12.922Z,15.28
2022-09-14T02:55:45.596Z,15.25
2022-09-14T02:58:14.211Z,15.21
2022-09-14T03:00:45.479Z,15.19
2022-09-14T03:03:14.306Z,15.17
2022-09-14T03:05:41.503Z,15.23
2022-09-14T03:08:10.357Z,15.23
2022-09-14T03:10:37.662Z,15.21
2022-09-14T03:13:04.838Z,15.24
2022-09-14T03:15:31.753Z,15.25
2022-09-14T03:17:58.355Z,15.24
2022-09-14T03:20:28.093Z,15.25
2022-09-14T03:22:55.139Z,15.25
2022-09-14T03:25:23.167Z,15.21
2022-09-14T03:27:51.204Z,15.11
2022-09-14T03:30:18.746Z,15.10
2022-09-14T03:32:45.963Z,15.10
2022-09-14T03:35:13.760Z,14.97
2022-09-14T03:37:42.352Z,14.94
2022-09-14T03:40:11.272Z,14.90
2022-09-14T03:42:43.272Z,14.86
2022-09-14T03:45:10.771Z,14.86
2022-09-14T03:47:37.378Z,14.90
2022-09-14T03:50:04.140Z,14.94
2022-09-14T03:52:30.769Z,14.97
2022-09-14T03:54:57.372Z,14.97
2022-09-14T03:57:23.985Z,15.02
2022-09-14T03:59:50.565Z,15.05
2022-09-14T04:02:17.209Z,15.04
2022-09-14T04:04:43.816Z,15.01
2022-09-14T04:07:10.383Z,15.01
2022-09-14T04:09:38.580Z,14.99
2022-09-14T04:12:05.473Z,15.00
2022-09-14T04:14:32.071Z,15.04
2022-09-14T04:16:58.878Z,15.00
2022-09-14T04:19:25.513Z,14.96
2022-09-14T04:21:52.090Z,14.96
2022-09-14T04:24:18.930Z,14.91
2022-09-14T04:26:49.019Z,15.00
2022-09-14T04:29:15.659Z,14.97
2022-09-14T04:31:42.307Z,14.95
2022-09-14T04:34:12.632Z,14.94
2022-09-14T04:36:39.287Z,14.93
2022-09-14T04:39:07.084Z,14.91
2022-09-14T04:41:33.754Z,14.92
2022-09-14T04:44:00.893Z,14.93
2022-09-14T04:46:30.452Z,14.89
2022-09-14T04:48:57.491Z,14.86
2022-09-14T04:51:27.307Z,14.91
2022-09-14T04:53:56.458Z,14.95
2022-09-14T04:56:24.301Z,14.99
2022-09-14T04:58:54.301Z,14.98
2022-09-14T05:01:23.602Z,14.97
2022-09-14T05:03:51.091Z,14.98
2022-09-14T05:06:20.755Z,15.04
2022-09-14T05:08:48.730Z,15.03
2022-09-14T05:11:18.081Z,15.06
2022-09-14T05:13:49.773Z,15.06
2022-09-14T05:16:20.361Z,15.10
2022-09-14T05:18:48.455Z,15.09
2022-09-14T05:21:17.568Z,15.09
2022-09-14T05:23:44.679Z,15.08
2022-09-14T05:26:11.514Z,15.10
2022-09-14T05:28:38.404Z,15.07
2022-09-14T05:31:07.406Z,15.11
2022-09-14T05:33:34.863Z,15.11
2022-09-14T05:36:04.633Z,15.12
2022-09-14T05:38:33.534Z,15.13
2022-09-14T05:41:00.233Z,15.11
2022-09-14T05:43:28.634Z,15.14
2022-09-14T05:45:56.041Z,15.18
2022-09-14T05:48:22.677Z,15.19
2022-09-14T05:50:49.281Z,15.21
2022-09-14T05:53:15.834Z,15.18
2022-09-14T05:55:42.363Z,15.40
2022-09-14T05:58:08.999Z,15.29
2022-09-14T06:00:35.588Z,15.27
2022-09-14T06:03:02.188Z,15.30
2022-09-14T06:05:28.821Z,15.35
2022-09-14T06:07:55.487Z,15.37
2022-09-14T06:10:22.176Z,15.39
2022-09-14T06:12:53.450Z,15.38
2022-09-14T06:15:24.626Z,15.37
2022-09-14T06:17:51.336Z,15.40
2022-09-14T06:20:18.884Z,15.49
2022-09-14T06:22:45.453Z,15.52
2022-09-14T06:25:11.962Z,15.50
2022-09-14T06:27:38.559Z,15.57
2022-09-14T06:30:05.761Z,15.59
2022-09-14T06:32:32.338Z,15.55
2022-09-14T06:34:58.937Z,15.57
2022-09-14T06:37:25.517Z,15.58
2022-09-14T06:39:52.214Z,15.68
2022-09-14T06:42:18.822Z,15.70
2022-09-14T06:44:47.843Z,15.73
2022-09-14T06:47:14.411Z,15.71
2022-09-14T06:49:40.997Z,15.76
2022-09-14T06:52:07.551Z,15.77
2022-09-14T06:54:34.121Z,15.84
2022-09-14T06:57:00.676Z,15.93
2022-09-14T06:59:27.248Z,15.90
2022-09-14T07:01:53.833Z,15.91
2022-09-14T07:04:21.594Z,15.91
2022-09-14T07:06:49.749Z,15.89
2022-09-14T07:09:18.436Z,15.95
2022-09-14T07:11:46.086Z,15.95
2022-09-14T07:14:13.049Z,15.99
2022-09-14T07:16:40.710Z,16.03
2022-09-14T07:19:11.531Z,16.40
2022-09-14T07:21:38.732Z,16.48
2022-09-14T07:24:05.794Z,16.54
2022-09-14T07:26:39.873Z,16.42
2022-09-14T07:29:10.565Z,16.58
2022-09-14T07:31:41.031Z,16.78
2022-09-14T07:34:08.191Z,16.84
2022-09-14T07:36:36.597Z,16.86
2022-09-14T07:39:06.043Z,16.73
2022-09-14T07:41:35.801Z,16.82
2022-09-14T07:44:05.306Z,16.75
2022-09-14T07:46:38.354Z,16.62
2022-09-14T07:49:06.718Z,16.64
2022-09-14T07:51:36.676Z,16.45
2022-09-14T07:54:05.237Z,16.35
2022-09-14T07:56:32.331Z,16.50
2022-09-14T07:59:23.723Z,16.31
2022-09-14T08:01:47.019Z,16.23
2022-09-14T08:04:13.761Z,16.23
2022-09-14T08:06:40.761Z,16.20
2022-09-14T08:09:09.368Z,16.23
2022-09-14T08:11:36.916Z,16.23
2022-09-14T08:14:07.081Z,16.26
2022-09-14T08:16:34.849Z,16.25
2022-09-14T08:19:04.649Z,16.24
2022-09-14T08:21:32.821Z,16.28
2022-09-14T08:24:02.409Z,16.29
2022-09-14T08:26:29.314Z,16.55
2022-09-14T08:29:00.507Z,16.59
2022-09-14T08:31:28.892Z,16.58
2022-09-14T08:34:00.942Z,16.50
2022-09-14T08:36:31.286Z,16.72
2022-09-14T08:38:58.828Z,16.88
2022-09-14T08:41:51.122Z,16.86
2022-09-14T08:44:31.345Z,16.74
2022-09-14T08:47:18.654Z,16.73
2022-09-14T08:49:55.175Z,16.70
2022-09-14T08:52:27.021Z,16.72
2022-09-14T08:54:57.291Z,16.71
2022-09-14T08:57:46.150Z,16.76
2022-09-14T09:00:17.170Z,16.80
2022-09-14T09:02:44.788Z,16.84
2022-09-14T09:05:27.073Z,16.89
2022-09-14T09:08:08.836Z,16.97
2022-09-14T09:10:38.972Z,17.05
2022-09-14T09:13:07.846Z,17.07
2022-09-14T09:15:41.309Z,17.06
2022-09-14T09:18:15.153Z,17.07
2022-09-14T09:20:47.472Z,17.10
2022-09-14T09:23:18.280Z,17.14
2022-09-14T09:25:50.271Z,17.15
2022-09-14T09:28:18.055Z,17.16
2022-09-14T09:30:45.593Z,17.22
2022-09-14T09:33:19.931Z,17.33
2022-09-14T09:35:46.572Z,17.43
2022-09-14T09:38:16.136Z,17.48
2022-09-14T09:40:48.116Z,17.58
2022-09-14T09:43:33.301Z,17.60
2022-09-14T09:46:07.654Z,17.69
2022-09-14T09:48:44.271Z,17.74
2022-09-14T09:51:19.877Z,17.73
2022-09-14T09:53:59.641Z,17.77
2022-09-14T09:56:30.490Z,17.80
2022-09-14T09:58:57.345Z,17.99
2022-09-14T10:01:29.277Z,17.97
2022-09-14T10:04:19.625Z,18.01
2022-09-14T10:06:48.669Z,18.05
2022-09-14T10:09:21.492Z,18.13
2022-09-14T10:12:04.290Z,18.16
2022-09-14T10:14:32.094Z,18.27
2022-09-14T10:17:18.343Z,18.35
2022-09-14T10:19:49.606Z,18.53
2022-09-14T10:22:21.942Z,18.71
2022-09-14T10:24:55.212Z,18.82
2022-09-14T10:27:39.785Z,18.86
2022-09-14T10:30:13.821Z,18.98
2022-09-14T10:32:43.724Z,18.99
2022-09-14T10:35:15.525Z,19.01
2022-09-14T10:38:17.633Z,19.08
2022-09-14T10:40:50.282Z,19.25
2022-09-14T10:43:33.965Z,19.47
2022-09-14T10:46:06.288Z,19.53
2022-09-14T10:48:51.198Z,19.61
2022-09-14T10:51:24.819Z,19.82
2022-09-14T10:54:12.279Z,19.85
2022-09-14T10:56:58.699Z,19.83
2022-09-14T10:59:35.284Z,19.88
2022-09-14T11:02:25.323Z,19.86
2022-09-14T11:05:16.346Z,19.92
2022-09-14T11:07:54.739Z,19.99
2022-09-14T11:10:32.458Z,20.06
2022-09-14T11:13:23.430Z,20.21
2022-09-14T11:16:12.772Z,20.38
2022-09-14T11:18:52.050Z,20.42
2022-09-14T11:21:29.336Z,20.64
2022-09-14T11:24:18.865Z,20.58
2022-09-14T11:26:59.134Z,20.74
2022-09-14T11:29:33.120Z,20.63
2022-09-14T11:32:20.475Z,20.58
2022-09-14T11:34:54.954Z,20.60
2022-09-14T11:37:29.700Z,20.64
2022-09-14T11:40:18.567Z,20.60
2022-09-14T11:42:59.732Z,20.56
2022-09-14T11:45:31.828Z,20.61
2022-09-14T11:48:38.396Z,20.66
2022-09-14T11:51:05.208Z,20.71
2022-09-14T11:53:32.863Z,20.69
2022-09-14T11:56:00.502Z,20.75
2022-09-14T11:58:29.991Z,21.10
2022-09-14T12:01:27.075Z,21.28
2022-09-14T12:04:08.810Z,21.31
2022-09-14T12:06:36.521Z,21.44
2022-09-14T12:09:21.140Z,21.52
2022-09-14T12:11:50.586Z,21.53
2022-09-14T12:14:36.672Z,21.70
2022-09-14T12:17:22.502Z,21.65
2022-09-14T12:19:55.648Z,21.68
2022-09-14T12:22:38.646Z,21.91
2022-09-14T12:25:18.102Z,21.96
2022-09-14T12:27:47.769Z,22.03
2022-09-14T12:30:37.127Z,22.24
2022-09-14T12:33:43.535Z,22.51
2022-09-14T12:36:32.224Z,22.51
2022-09-14T12:38:59.063Z,22.52
2022-09-14T12:41:25.591Z,22.40
2022-09-14T12:43:52.174Z,22.28
2022-09-14T12:46:19.838Z,22.24
2022-09-14T12:48:50.013Z,22.22
2022-09-14T12:51:41.304Z,22.14
2022-09-14T12:54:08.171Z,22.44
2022-09-14T12:56:54.586Z,22.50
2022-09-14T12:59:21.021Z,22.53
2022-09-14T13:01:52.264Z,22.64
2022-09-14T13:04:25.171Z,22.73
2022-09-14T13:06:53.021Z,22.86
2022-09-14T13:09:25.016Z,22.92
2022-09-14T13:11:57.937Z,22.99
2022-09-14T13:14:39.898Z,22.95
2022-09-14T13:17:15.984Z,23.07
2022-09-14T13:19:43.174Z,23.08
2022-09-14T13:22:27.278Z,23.03
2022-09-14T13:24:54.156Z,23.29
2022-09-14T13:27:33.996Z,23.24
2022-09-14T13:30:06.868Z,23.40
2022-09-14T13:32:36.718Z,23.30
2022-09-14T13:35:06.246Z,23.39
2022-09-14T13:37:32.949Z,23.32
2022-09-14T13:40:00.035Z,23.19
2022-09-14T13:42:27.404Z,23.34
2022-09-14T13:44:54.247Z,23.34
2022-09-14T13:47:23.404Z,23.22
2022-09-14T13:49:51.973Z,23.39
2022-09-14T13:52:49.774Z,23.43
2022-09-14T13:55:19.263Z,23.61
2022-09-14T13:58:16.394Z,23.53
2022-09-14T14:00:58.390Z,23.48
2022-09-14T14:03:35.372Z,23.46
2022-09-14T14:06:18.120Z,23.42
2022-09-14T14:08:44.744Z,23.34
2022-09-14T14:11:11.358Z,23.36
2022-09-14T14:13:38.453Z,23.31
2022-09-14T14:16:21.697Z,23.26
2022-09-14T14:18:54.410Z,23.20
2022-09-14T14:21:25.184Z,23.28
2022-09-14T14:24:12.279Z,23.32
2022-09-14T14:26:47.313Z,23.39
2022-09-14T14:29:16.283Z,23.54
2022-09-14T14:31:42.990Z,23.77
2022-09-14T14:34:27.175Z,23.59
2022-09-14T14:36:54.864Z,23.62
2022-09-14T14:39:23.845Z,23.85
2022-09-14T14:41:51.528Z,23.88
2022-09-14T14:44:24.817Z,23.97
2022-09-14T14:46:51.826Z,23.96
2022-09-14T14:49:20.690Z,23.91
2022-09-14T14:51:48.146Z,23.93
2022-09-14T14:54:18.917Z,23.85
2022-09-14T14:56:48.352Z,23.75
2022-09-14T14:59:24.262Z,23.78
2022-09-14T15:01:52.077Z,23.70
2022-09-14T15:04:18.937Z,23.54
2022-09-14T15:06:47.172Z,23.62
2022-09-14T15:09:18.208Z,23.42
2022-09-14T15:11:45.396Z,23.35
2022-09-14T15:14:14.555Z,23.40
2022-09-14T15:16:41.993Z,23.36
2022-09-14T15:19:10.574Z,23.13
2022-09-14T15:21:38.666Z,23.00
2022-09-14T15:24:08.220Z,22.89
2022-09-14T15:26:35.281Z,22.87
2022-09-14T15:29:01.967Z,22.81
2022-09-14T15:31:29.571Z,22.76
2022-09-14T15:33:56.282Z,22.72
2022-09-14T15:36:39.339Z,22.71
2022-09-14T15:39:07.653Z,22.71
2022-09-14T15:41:38.731Z,22.66
2022-09-14T15:44:05.487Z,22.58
2022-09-14T15:46:32.207Z,22.53
2022-09-14T15:48:59.133Z,22.44
2022-09-14T15:51:25.772Z,22.42
2022-09-14T15:53:52.987Z,22.36
2022-09-14T15:56:19.855Z,22.29
2022-09-14T15:58:48.224Z,22.29
2022-09-14T16:01:17.675Z,22.30
2022-09-14T16:03:44.882Z,22.28
2022-09-14T16:06:14.138Z,22.26
2022-09-14T16:08:41.712Z,22.27
2022-09-14T16:11:09.327Z,22.25
2022-09-14T16:13:36.336Z,22.24
2022-09-14T16:16:07.106Z,22.21
2022-09-14T16:18:35.641Z,22.49
2022-09-14T16:21:15.534Z,22.34
2022-09-14T16:23:45.467Z,22.26
2022-09-14T16:26:15.541Z,22.24
2022-09-14T16:28:44.685Z,22.22
2022-09-14T16:31:20.807Z,22.21
2022-09-14T16:33:51.272Z,22.21
2022-09-14T16:36:21.209Z,22.17
2022-09-14T16:38:48.221Z,22.12
2022-09-14T16:41:16.042Z,22.12
2022-09-14T16:43:43.056Z,22.05
2022-09-14T16:46:11.563Z,21.99
2022-09-14T16:48:41.573Z,21.96
2022-09-14T16:51:09.539Z,21.93
2022-09-14T16:53:38.331Z,21.92
2022-09-14T16:56:10.762Z,22.11
2022-09-14T16:58:38.819Z,21.98
2022-09-14T17:01:13.527Z,21.90
2022-09-14T17:03:41.226Z,21.84
2022-09-14T17:06:10.657Z,21.80
2022-09-14T17:08:41.813Z,21.71
2022-09-14T17:11:11.602Z,21.65
2022-09-14T17:13:38.581Z,21.58
2022-09-14T17:16:08.805Z,21.53
2022-09-14T17:18:37.395Z,21.49
2022-09-14T17:21:07.164Z,21.46
2022-09-14T17:23:33.932Z,21.43
2022-09-14T17:26:02.569Z,21.44
2022-09-14T17:28:29.374Z,21.59
2022-09-14T17:30:58.626Z,21.41
2022-09-14T17:33:26.401Z,21.37
2022-09-14T17:35:55.672Z,21.33
2022-09-14T17:38:26.852Z,21.29
2022-09-14T17:41:01.048Z,21.19
2022-09-14T17:43:27.589Z,21.19
2022-09-14T17:45:55.929Z,21.27
2022-09-14T17:48:24.120Z,21.43
2022-09-14T17:50:51.009Z,21.25
2022-09-14T17:53:17.732Z,20.53
2022-09-14T17:55:44.292Z,19.83
2022-09-14T17:58:10.890Z,19.55
2022-09-14T18:00:37.568Z,19.15
2022-09-14T18:03:05.014Z,18.89
2022-09-14T18:05:31.652Z,18.87
2022-09-14T18:07:58.687Z,18.81
2022-09-14T18:10:25.352Z,18.73
2022-09-14T18:12:53.121Z,18.58
2022-09-14T18:15:19.885Z,18.67
2022-09-14T18:17:46.723Z,18.54
2022-09-14T18:20:14.989Z,18.58
2022-09-14T18:22:41.533Z,18.51
2022-09-14T18:25:09.048Z,18.58
2022-09-14T18:27:35.598Z,18.54
2022-09-14T18:52:42.519Z,18.37
2022-09-14T18:55:09.776Z,18.44
2022-09-14T18:57:36.604Z,18.40
2022-09-14T19:00:04.615Z,18.37
2022-09-14T19:02:33.623Z,18.23
2022-09-14T19:05:00.257Z,18.19
2022-09-14T19:07:26.964Z,18.20
2022-09-14T19:09:53.586Z,18.09
2022-09-14T19:12:20.145Z,18.06
2022-09-14T19:14:46.709Z,18.00
2022-09-14T19:17:13.309Z,17.98
2022-09-14T19:19:39.921Z,17.94
2022-09-14T19:22:06.548Z,17.92
2022-09-14T19:24:33.321Z,17.88
2022-09-14T19:27:00.243Z,17.89
2022-09-14T19:29:28.685Z,17.91
2022-09-14T19:31:55.791Z,17.87
2022-09-14T19:34:24.373Z,17.88
2022-09-14T19:36:51.568Z,17.83
2022-09-14T19:39:18.598Z,17.87
2022-09-14T19:41:45.219Z,17.87
2022-09-14T19:44:12.027Z,17.85
2022-09-14T19:46:39.789Z,17.83
2022-09-14T19:49:11.748Z,17.82
2022-09-14T19:51:38.324Z,17.76
2022-09-14T19:54:04.954Z,17.79
2022-09-14T19:56:32.553Z,17.80
2022-09-14T19:59:00.665Z,17.79
2022-09-14T20:01:29.022Z,17.79
2022-09-14T20:03:56.484Z,17.80
2022-09-14T20:06:26.358Z,17.80
2022-09-14T20:08:58.214Z,17.86
2022-09-14T20:11:27.060Z,17.86
2022-09-14T20:13:55.495Z,17.77
2022-09-14T20:16:25.259Z,17.78
2022-09-14T20:18:52.459Z,17.76
2022-09-14T20:21:22.284Z,17.74
2022-09-14T20:24:14.595Z,17.86
2022-09-14T20:26:41.848Z,17.77
2022-09-14T20:29:08.595Z,17.72
2022-09-14T20:31:38.835Z,17.70
2022-09-14T20:34:05.830Z,17.71
2022-09-14T20:36:33.445Z,17.67
2022-09-14T20:39:00.641Z,17.73
2022-09-14T20:41:30.053Z,17.74
2022-09-14T20:43:57.885Z,17.72
2022-09-14T20:46:31.789Z,17.73
2022-09-14T20:48:58.708Z,17.71
2022-09-14T20:51:25.916Z,17.72
2022-09-14T20:53:53.434Z,17.74
2022-09-14T20:56:22.526Z,17.74
2022-09-14T20:58:52.725Z,17.75
2022-09-14T21:01:21.793Z,17.71
2022-09-14T21:03:50.347Z,17.81
2022-09-14T21:06:22.007Z,17.74
2022-09-14T21:08:48.903Z,17.73
2022-09-14T21:11:20.545Z,17.74
2022-09-14T21:13:48.069Z,17.67
2022-09-14T21:16:17.505Z,17.58
2022-09-14T21:18:45.304Z,17.57
2022-09-14T21:21:15.875Z,17.54
2022-09-14T21:23:43.004Z,17.53
2022-09-14T21:26:11.372Z,17.53
2022-09-14T21:28:39.490Z,17.51
2022-09-14T21:31:11.685Z,17.51
2022-09-14T21:33:40.823Z,17.50
2022-09-14T21:36:10.917Z,17.45
2022-09-14T21:38:38.250Z,17.40
2022-09-14T21:41:07.584Z,17.40
2022-09-14T21:43:38.109Z,17.41
2022-09-14T21:46:05.506Z,17.39
2022-09-14T21:48:32.806Z,17.50
2022-09-14T21:51:15.386Z,17.46
2022-09-14T21:53:45.448Z,17.41
2022-09-14T21:56:12.326Z,17.39
2022-09-14T21:58:39.146Z,17.40
2022-09-14T22:01:05.844Z,17.41
2022-09-14T22:03:32.558Z,17.37
2022-09-14T22:06:04.163Z,17.36
2022-09-14T22:08:31.661Z,17.36
2022-09-14T22:11:07.265Z,17.34
2022-09-14T22:13:34.560Z,17.32
2022-09-14T22:16:13.623Z,17.32
2022-09-14T22:18:47.242Z,17.30
2022-09-14T22:21:13.812Z,17.26
2022-09-14T22:23:40.480Z,17.25
2022-09-14T22:26:09.677Z,17.27
2022-09-14T22:28:40.056Z,17.23
2022-09-14T22:31:08.068Z,17.24
2022-09-14T22:33:35.284Z,17.22
2022-09-14T22:36:04.005Z,17.18
2022-09-14T22:38:34.165Z,17.17
2022-09-14T22:41:02.004Z,17.18
2022-09-14T22:43:29.831Z,17.17
2022-09-14T22:45:57.194Z,17.19
2022-09-14T22:48:24.526Z,17.14
2022-09-14T22:50:53.235Z,17.16
2022-09-14T22:53:21.173Z,17.15
2022-09-14T22:55:47.717Z,17.16
2022-09-14T22:58:17.556Z,17.15
2022-09-14T23:00:44.665Z,17.13
2022-09-14T23:03:12.640Z,17.11
2022-09-14T23:05:40.494Z,17.08
2022-09-14T23:08:08.205Z,17.10
2022-09-14T23:10:38.200Z,17.10
2022-09-14T23:13:04.750Z,17.09
2022-09-14T23:15:31.316Z,17.10
2022-09-14T23:17:57.935Z,17.13
2022-09-14T23:20:24.463Z,17.18
2022-09-14T23:22:51.024Z,17.21
2022-09-14T23:25:17.546Z,17.18
2022-09-14T23:27:44.113Z,17.13
2022-09-14T23:30:11.194Z,17.15
2022-09-14T23:32:37.757Z,17.23
2022-09-14T23:35:04.836Z,17.10
2022-09-14T23:37:31.408Z,17.07
2022-09-14T23:39:57.974Z,17.04
2022-09-14T23:42:24.600Z,17.00
2022-09-14T23:44:51.201Z,17.00
2022-09-14T23:47:18.291Z,16.97
2022-09-14T23:49:44.971Z,16.98
2022-09-14T23:52:11.520Z,16.94
2022-09-14T23:54:38.126Z,16.93
2022-09-14T23:57:04.710Z,16.92
2022-09-14T23:59:31.253Z,16.92
